Time;durP1;ratioP1;P1;durP2;ratioP2;P2;SDS_P1;SDS_P2;PMS_P1;PMS_P2;Temp;Humidity;BMP_temperature;BMP_pressure;BME280_temperature;BME280_humidity;BME280_pressure;Samples;Min_cycle;Max_cycle;Signal;HPM_P1;HPM_P2
2023/01/31 00:00:15;;;;;;;84.65;18.13;;;6.80;94.00;;;;;;5105836;28;20032;-57
2023/01/31 00:02:41;;;;;;;92.97;19.27;;;6.80;94.00;;;;;;5107115;28;20046;-57
2023/01/31 00:05:07;;;;;;;68.68;17.77;;;6.80;94.00;;;;;;5088843;28;20028;-57
2023/01/31 00:07:32;;;;;;;61.65;17.27;;;6.80;93.90;;;;;;5106933;28;20024;-58
2023/01/31 00:09:58;;;;;;;80.40;17.52;;;6.80;93.90;;;;;;5107074;28;20049;-57
2023/01/31 00:12:23;;;;;;;78.40;17.65;;;6.80;93.80;;;;;;5105742;28;20055;-57
2023/01/31 00:14:49;;;;;;;68.15;17.33;;;6.80;93.80;;;;;;5107008;28;20134;-57
2023/01/31 00:17:14;;;;;;;77.40;18.08;;;6.80;93.70;;;;;;5106574;28;20024;-57
2023/01/31 00:19:40;;;;;;;63.88;15.45;;;6.80;93.70;;;;;;5105100;28;20095;-57
2023/01/31 00:22:06;;;;;;;67.25;16.52;;;6.80;93.70;;;;;;5107205;28;20039;-57
2023/01/31 00:24:31;;;;;;;66.82;17.05;;;6.80;93.70;;;;;;5071899;28;20058;-58
2023/01/31 00:26:57;;;;;;;64.78;16.73;;;6.80;93.80;;;;;;5105512;28;20079;-57
2023/01/31 00:29:23;;;;;;;59.00;16.77;;;6.80;93.80;;;;;;5106427;28;20098;-58
2023/01/31 00:31:48;;;;;;;65.45;16.10;;;6.70;93.70;;;;;;5105241;28;20027;-58
2023/01/31 00:34:14;;;;;;;54.75;16.55;;;6.70;93.70;;;;;;5105006;28;20064;-57
2023/01/31 00:36:39;;;;;;;58.97;14.95;;;6.80;93.60;;;;;;5121954;28;20048;-58
2023/01/31 00:39:06;;;;;;;60.65;15.48;;;6.70;93.60;;;;;;5088086;28;20063;-58
2023/01/31 00:41:32;;;;;;;58.67;16.08;;;6.70;93.60;;;;;;5105232;28;20028;-57
2023/01/31 00:43:58;;;;;;;63.67;14.50;;;6.70;93.60;;;;;;5088472;28;20078;-57
2023/01/31 00:46:24;;;;;;;54.67;13.65;;;6.70;93.50;;;;;;5105050;28;20445;-58
2023/01/31 00:48:50;;;;;;;51.83;13.90;;;6.70;93.50;;;;;;5106116;28;20089;-57
2023/01/31 00:51:16;;;;;;;46.72;14.15;;;6.70;93.50;;;;;;5104972;28;20052;-57
2023/01/31 00:53:41;;;;;;;45.83;14.73;;;6.70;93.50;;;;;;5104763;28;20060;-57
2023/01/31 00:56:09;;;;;;;53.85;14.70;;;6.70;93.50;;;;;;5104629;28;20020;-57
2023/01/31 00:58:35;;;;;;;47.38;14.85;;;6.70;93.50;;;;;;5087707;28;20020;-57
2023/01/31 01:01:08;;;;;;;45.08;14.05;;;6.70;93.60;;;;;;5104552;28;20054;-57
2023/01/31 01:03:34;;;;;;;55.28;14.13;;;6.70;93.50;;;;;;5070960;28;20016;-57
2023/01/31 01:05:59;;;;;;;39.92;14.27;;;6.70;93.80;;;;;;5104550;28;20032;-57
2023/01/31 01:08:25;;;;;;;37.97;13.88;;;6.70;93.50;;;;;;5087603;28;20035;-57
2023/01/31 01:10:50;;;;;;;40.97;13.82;;;6.60;93.50;;;;;;5105925;28;20036;-58
2023/01/31 01:13:16;;;;;;;48.55;13.38;;;6.70;93.40;;;;;;5104328;28;20039;-57
2023/01/31 01:15:41;;;;;;;48.97;14.73;;;6.60;93.40;;;;;;5104402;28;20032;-57
2023/01/31 01:18:07;;;;;;;47.20;14.70;;;6.60;93.40;;;;;;5105456;28;20024;-58
2023/01/31 01:20:33;;;;;;;31.90;12.52;;;6.60;93.40;;;;;;5104323;28;20153;-57
2023/01/31 01:22:59;;;;;;;32.50;12.93;;;6.60;93.40;;;;;;5104326;28;20016;-57
2023/01/31 01:25:24;;;;;;;38.53;12.77;;;6.60;93.40;;;;;;5105655;28;20032;-58
2023/01/31 01:27:50;;;;;;;47.28;14.43;;;6.60;93.40;;;;;;5087351;28;20024;-56
2023/01/31 01:30:16;;;;;;;43.20;13.93;;;6.60;93.40;;;;;;5104856;28;20047;-57
2023/01/31 01:32:41;;;;;;;37.67;13.80;;;6.60;93.50;;;;;;5104019;28;20027;-57
2023/01/31 01:35:08;;;;;;;29.58;12.63;;;6.60;93.50;;;;;;5104014;28;20444;-57
2023/01/31 01:37:34;;;;;;;42.42;13.88;;;6.60;93.50;;;;;;5105267;28;20480;-57
2023/01/31 01:40:00;;;;;;;42.30;13.98;;;6.60;93.50;;;;;;5105193;28;20036;-57
2023/01/31 01:42:25;;;;;;;34.30;11.90;;;6.60;93.50;;;;;;5103979;28;20024;-58
2023/01/31 01:45:04;;;;;;;35.15;13.10;;;6.60;93.50;;;;;;5105368;28;20042;-57
2023/01/31 01:47:49;;;;;;;41.47;13.27;;;6.60;93.50;;;;;;5105371;28;20046;-57
2023/01/31 01:50:24;;;;;;;35.10;12.77;;;6.60;93.50;;;;;;5088341;28;20047;-57
2023/01/31 01:52:52;;;;;;;33.22;11.85;;;6.60;93.50;;;;;;5105113;28;20044;-57
2023/01/31 01:55:24;;;;;;;34.63;12.77;;;6.60;93.40;;;;;;5086683;28;20055;-57
2023/01/31 01:57:51;;;;;;;41.15;12.15;;;6.60;93.50;;;;;;5103739;28;20028;-57
2023/01/31 02:00:23;;;;;;;27.05;12.70;;;6.60;93.50;;;;;;5086875;28;20092;-57
2023/01/31 02:02:51;;;;;;;31.65;12.95;;;6.60;93.50;;;;;;5103714;28;20385;-57
2023/01/31 02:05:19;;;;;;;32.88;12.20;;;6.60;93.50;;;;;;5103616;28;20051;-58
2023/01/31 02:07:45;;;;;;;38.97;13.27;;;6.50;93.50;;;;;;5103599;28;20019;-57
2023/01/31 02:10:14;;;;;;;29.88;12.85;;;6.50;93.50;;;;;;5086645;28;20100;-58
2023/01/31 02:12:40;;;;;;;32.92;12.50;;;6.50;93.70;;;;;;5087094;28;20131;-57
2023/01/31 02:15:06;;;;;;;36.00;12.85;;;6.50;94.00;;;;;;5086766;28;20203;-58
2023/01/31 02:17:32;;;;;;;30.85;12.80;;;6.50;94.10;;;;;;5086567;28;20020;-57
2023/01/31 02:20:10;;;;;;;38.90;13.90;;;6.50;94.30;;;;;;5086695;28;20101;-57
2023/01/31 02:22:41;;;;;;;35.97;13.30;;;6.50;94.40;;;;;;5103501;28;20016;-58
2023/01/31 02:25:22;;;;;;;33.95;14.50;;;6.50;94.50;;;;;;5086963;28;20111;-57
2023/01/31 02:28:05;;;;;;;37.38;14.85;;;6.50;94.60;;;;;;5104808;28;20023;-58
2023/01/31 02:30:49;;;;;;;44.30;15.48;;;6.50;94.60;;;;;;5103444;28;20021;-57
2023/01/31 02:33:25;;;;;;;38.80;15.82;;;6.50;94.50;;;;;;5104766;28;20020;-57
2023/01/31 02:36:12;;;;;;;39.78;17.48;;;6.50;94.60;;;;;;5103459;28;20028;-57
2023/01/31 02:38:55;;;;;;;37.45;15.88;;;6.40;94.60;;;;;;5102917;28;20341;-57
2023/01/31 02:41:46;;;;;;;39.22;16.17;;;6.50;94.60;;;;;;5088732;28;20031;-57
2023/01/31 02:47:11;;;;;;;46.03;16.45;;;6.50;94.60;;;;;;5108668;28;20063;-57
2023/01/31 02:49:49;;;;;;;40.17;15.07;;;6.50;94.60;;;;;;5090910;28;20043;-57
2023/01/31 02:52:35;;;;;;;38.90;15.85;;;6.50;94.60;;;;;;5091901;28;20090;-57
2023/01/31 02:58:01;;;;;;;30.15;13.73;;;6.50;94.60;;;;;;5107231;28;20452;-57
2023/01/31 03:00:28;;;;;;;32.03;14.88;;;6.40;94.60;;;;;;5106806;28;20036;-57
2023/01/31 03:02:55;;;;;;;30.58;15.00;;;6.40;94.60;;;;;;5090281;28;20017;-57
2023/01/31 03:05:21;;;;;;;32.33;14.57;;;6.50;94.60;;;;;;5123929;28;20047;-57
2023/01/31 03:07:49;;;;;;;32.20;14.30;;;6.50;94.60;;;;;;5107132;28;20036;-57
2023/01/31 03:10:31;;;;;;;33.53;14.85;;;6.40;94.60;;;;;;5090241;28;20026;-57
2023/01/31 03:13:05;;;;;;;25.88;13.88;;;6.50;94.60;;;;;;5106860;28;20028;-57
2023/01/31 03:18:48;;;;;;;34.88;16.33;;;6.50;94.60;;;;;;5093800;28;20035;-58
2023/01/31 03:21:16;;;;;;;32.10;15.73;;;6.40;94.60;;;;;;5090772;28;20036;-57
2023/01/31 03:23:44;;;;;;;31.73;16.80;;;6.40;94.60;;;;;;5090047;28;20028;-57
2023/01/31 03:26:10;;;;;;;30.52;17.10;;;6.40;94.60;;;;;;5106526;28;20024;-57
2023/01/31 03:28:35;;;;;;;34.30;16.25;;;6.50;94.60;;;;;;5089947;28;20107;-57
2023/01/31 03:31:13;;;;;;;30.65;15.38;;;6.40;94.60;;;;;;5106372;28;20024;-57
2023/01/31 03:33:41;;;;;;;37.10;16.17;;;6.40;94.60;;;;;;5106281;28;20032;-57
2023/01/31 03:36:23;;;;;;;36.13;15.40;;;6.50;94.60;;;;;;5106225;28;20032;-57
2023/01/31 03:39:06;;;;;;;38.65;14.65;;;6.40;94.60;;;;;;5106196;28;20029;-57
2023/01/31 03:42:01;;;;;;;33.83;15.00;;;6.40;94.60;;;;;;5106438;28;20036;-57
2023/01/31 03:44:43;;;;;;;28.60;14.32;;;6.40;94.60;;;;;;5089400;28;20024;-57
2023/01/31 03:47:14;;;;;;;29.48;14.20;;;6.40;94.60;;;;;;5089748;28;20024;-57
2023/01/31 03:49:41;;;;;;;29.25;14.05;;;6.40;94.60;;;;;;5088966;28;20054;-57
2023/01/31 03:52:08;;;;;;;33.45;13.65;;;6.40;94.60;;;;;;5088956;28;20059;-57
2023/01/31 03:54:40;;;;;;;32.35;14.35;;;6.40;94.60;;;;;;5088658;28;20024;-57
2023/01/31 03:57:13;;;;;;;24.55;12.93;;;6.40;94.70;;;;;;5089208;28;20032;-57
2023/01/31 03:59:39;;;;;;;26.92;13.27;;;6.30;94.70;;;;;;5089545;28;20028;-57
2023/01/31 04:02:06;;;;;;;25.50;12.77;;;6.40;94.70;;;;;;5088800;28;20031;-57
2023/01/31 04:04:38;;;;;;;29.98;13.50;;;6.40;94.70;;;;;;5072183;28;20031;-57
2023/01/31 04:07:05;;;;;;;23.02;13.20;;;6.30;94.50;;;;;;5088975;28;20035;-57
2023/01/31 04:09:31;;;;;;;25.08;11.65;;;6.30;94.60;;;;;;5088946;28;20060;-57
2023/01/31 04:11:58;;;;;;;21.08;12.20;;;6.30;94.50;;;;;;5107074;28;20035;-57
2023/01/31 04:14:24;;;;;;;24.98;12.55;;;6.30;94.50;;;;;;5105588;28;20036;-57
2023/01/31 04:16:49;;;;;;;25.30;12.75;;;6.30;94.50;;;;;;5105699;28;20451;-57
2023/01/31 04:19:15;;;;;;;20.95;12.20;;;6.30;94.50;;;;;;5106856;28;20417;-57
2023/01/31 04:21:40;;;;;;;19.58;11.93;;;6.20;94.50;;;;;;5106625;28;20103;-57
2023/01/31 04:24:08;;;;;;;22.83;12.27;;;6.30;94.50;;;;;;5088259;28;20032;-57
2023/01/31 04:26:33;;;;;;;22.52;12.38;;;6.20;94.50;;;;;;5105214;28;20026;-57
2023/01/31 04:28:59;;;;;;;22.75;12.20;;;6.20;94.50;;;;;;5105196;28;20154;-57
2023/01/31 04:31:24;;;;;;;21.38;12.82;;;6.20;94.50;;;;;;5105345;28;20024;-58
2023/01/31 04:33:50;;;;;;;26.00;12.30;;;6.20;94.50;;;;;;5106691;28;20038;-57
2023/01/31 04:36:16;;;;;;;19.02;11.95;;;6.20;94.50;;;;;;5088179;28;20028;-57
2023/01/31 04:38:41;;;;;;;27.50;12.75;;;6.20;94.50;;;;;;5088193;28;20107;-57
2023/01/31 04:41:07;;;;;;;23.20;12.77;;;6.20;94.50;;;;;;5106135;28;20024;-57
2023/01/31 04:43:32;;;;;;;19.83;11.60;;;6.20;94.50;;;;;;5104901;28;20021;-57
2023/01/31 04:45:58;;;;;;;19.55;12.00;;;6.30;94.50;;;;;;5106205;28;20460;-58
2023/01/31 04:48:23;;;;;;;22.10;12.23;;;6.20;94.40;;;;;;5104955;28;20049;-57
2023/01/31 04:50:49;;;;;;;20.88;12.13;;;6.20;94.40;;;;;;5106366;28;20051;-57
2023/01/31 04:53:14;;;;;;;21.08;11.93;;;6.20;94.40;;;;;;5104802;28;20032;-57
2023/01/31 04:55:40;;;;;;;17.38;12.18;;;6.20;94.40;;;;;;5104869;28;20088;-57
2023/01/31 04:58:06;;;;;;;20.10;11.90;;;6.20;94.40;;;;;;5104526;28;20051;-57
2023/01/31 05:00:31;;;;;;;23.02;12.65;;;6.20;94.40;;;;;;5104749;28;20045;-57
2023/01/31 05:02:57;;;;;;;19.00;11.38;;;6.20;94.40;;;;;;5104556;28;20051;-58
2023/01/31 05:05:22;;;;;;;18.90;12.13;;;6.10;94.30;;;;;;5105549;28;20077;-57
2023/01/31 05:07:48;;;;;;;18.63;11.48;;;6.20;94.30;;;;;;5105940;28;20020;-57
2023/01/31 05:10:13;;;;;;;17.83;11.60;;;6.20;94.10;;;;;;5087480;28;20032;-57
2023/01/31 05:12:39;;;;;;;16.55;11.57;;;6.20;94.00;;;;;;5070739;28;20020;-57
2023/01/31 05:15:09;;;;;;;17.58;11.40;;;6.20;94.00;;;;;;5087565;28;20158;-57
2023/01/31 05:17:35;;;;;;;23.73;12.35;;;6.10;93.90;;;;;;5105757;28;20023;-57
2023/01/31 05:20:01;;;;;;;16.02;11.82;;;6.10;93.90;;;;;;5105701;28;20056;-57
2023/01/31 05:22:26;;;;;;;16.88;11.48;;;6.10;93.90;;;;;;5104365;28;20035;-57
2023/01/31 05:24:52;;;;;;;27.23;12.15;;;6.10;93.90;;;;;;5120956;28;20080;-57
2023/01/31 05:27:18;;;;;;;32.05;12.55;;;6.10;93.90;;;;;;5105599;28;20479;-57
2023/01/31 05:29:44;;;;;;;24.25;12.10;;;6.10;93.90;;;;;;5087259;28;20028;-57
2023/01/31 05:32:10;;;;;;;20.52;11.73;;;6.10;93.90;;;;;;5104071;28;20028;-57
2023/01/31 05:34:35;;;;;;;20.60;10.98;;;6.10;93.90;;;;;;5103973;28;20089;-57
2023/01/31 05:37:01;;;;;;;17.40;11.20;;;6.10;93.90;;;;;;5104070;28;20084;-57
2023/01/31 05:39:27;;;;;;;20.85;11.27;;;6.10;93.90;;;;;;5103920;28;20063;-57
2023/01/31 05:41:53;;;;;;;21.38;12.10;;;6.10;93.90;;;;;;5103924;28;20058;-57
2023/01/31 05:44:19;;;;;;;26.85;11.73;;;6.10;93.90;;;;;;5086934;28;20024;-57
2023/01/31 05:46:44;;;;;;;19.83;11.80;;;6.00;93.90;;;;;;5103854;28;20058;-57
2023/01/31 05:49:11;;;;;;;21.33;11.82;;;6.00;93.90;;;;;;5103763;28;20032;-57
2023/01/31 05:51:36;;;;;;;17.77;10.68;;;6.00;94.00;;;;;;5103877;28;20208;-58
2023/01/31 05:54:02;;;;;;;21.02;11.60;;;6.00;94.00;;;;;;5105303;28;20061;-57
2023/01/31 05:56:27;;;;;;;17.95;11.20;;;6.00;94.00;;;;;;5105181;28;20047;-57
2023/01/31 05:58:53;;;;;;;16.48;11.00;;;6.00;94.00;;;;;;5086813;28;20088;-57
2023/01/31 06:01:20;;;;;;;21.10;11.73;;;6.00;94.00;;;;;;5105092;28;20028;-57
2023/01/31 06:03:45;;;;;;;19.13;11.45;;;6.00;94.00;;;;;;5087096;28;20023;-57
2023/01/31 06:06:11;;;;;;;22.65;11.10;;;5.90;94.00;;;;;;5103576;28;20020;-57
2023/01/31 06:08:37;;;;;;;19.70;10.77;;;6.00;94.10;;;;;;5086557;28;20031;-57
2023/01/31 06:11:03;;;;;;;18.63;11.05;;;5.90;94.10;;;;;;5105017;28;20024;-57
2023/01/31 06:13:30;;;;;;;16.60;11.20;;;6.00;94.10;;;;;;5103558;28;20089;-57
2023/01/31 06:15:55;;;;;;;18.10;11.20;;;5.90;94.20;;;;;;5103195;28;20092;-57
2023/01/31 06:18:21;;;;;;;19.40;11.38;;;6.00;94.30;;;;;;5086802;28;20149;-57
2023/01/31 06:20:46;;;;;;;16.30;11.73;;;6.00;94.40;;;;;;5104962;28;20032;-57
2023/01/31 06:23:12;;;;;;;16.55;11.20;;;6.00;94.40;;;;;;5105115;28;20448;-57
2023/01/31 06:25:37;;;;;;;17.63;11.20;;;6.00;94.40;;;;;;5103312;28;20050;-58
2023/01/31 06:28:03;;;;;;;19.48;11.23;;;6.00;94.40;;;;;;5120511;28;20024;-58
2023/01/31 06:30:29;;;;;;;24.55;12.23;;;6.00;94.30;;;;;;5086727;28;20028;-57
2023/01/31 06:32:54;;;;;;;18.48;10.45;;;6.00;94.30;;;;;;5105175;28;20024;-57
2023/01/31 06:35:20;;;;;;;19.38;11.77;;;6.00;94.40;;;;;;5103405;28;20031;-58
2023/01/31 06:37:45;;;;;;;22.02;12.13;;;5.90;94.50;;;;;;5102956;28;20024;-57
2023/01/31 06:40:11;;;;;;;20.33;11.07;;;6.00;94.50;;;;;;5104529;28;20103;-58
2023/01/31 06:42:36;;;;;;;24.50;12.60;;;6.00;94.50;;;;;;5103368;28;20360;-58
2023/01/31 06:45:02;;;;;;;20.45;12.52;;;6.00;94.70;;;;;;5104548;28;20028;-57
2023/01/31 06:47:28;;;;;;;21.92;13.25;;;6.00;94.80;;;;;;5103167;28;20032;-57
2023/01/31 06:49:54;;;;;;;26.45;14.25;;;6.00;94.80;;;;;;5103123;28;20074;-57
2023/01/31 06:52:19;;;;;;;26.20;14.02;;;6.00;94.80;;;;;;5104503;28;20051;-57
2023/01/31 06:54:45;;;;;;;24.20;14.77;;;5.90;94.90;;;;;;5086141;28;20108;-57
2023/01/31 06:57:10;;;;;;;32.45;15.68;;;5.90;95.00;;;;;;5103096;28;20043;-57
2023/01/31 06:59:36;;;;;;;25.30;14.38;;;5.90;94.80;;;;;;5102848;28;20050;-57
2023/01/31 07:02:01;;;;;;;26.27;13.88;;;5.90;94.90;;;;;;5085991;28;20052;-58
2023/01/31 07:04:27;;;;;;;22.58;13.45;;;5.90;94.80;;;;;;5102384;28;20044;-57
2023/01/31 07:06:52;;;;;;;24.65;14.02;;;6.00;94.80;;;;;;5104277;28;20020;-57
2023/01/31 07:09:18;;;;;;;18.58;12.57;;;5.90;94.80;;;;;;5095993;28;20479;-57
2023/01/31 07:11:43;;;;;;;22.00;13.23;;;5.90;94.80;;;;;;5082887;28;20043;-57
2023/01/31 07:14:09;;;;;;;23.27;13.35;;;5.90;94.80;;;;;;5083669;28;20032;-57
2023/01/31 07:16:36;;;;;;;18.38;11.98;;;5.90;94.80;;;;;;5082648;28;20055;-57
2023/01/31 07:19:02;;;;;;;28.52;13.05;;;5.90;94.80;;;;;;5066073;28;20185;-57
2023/01/31 07:21:28;;;;;;;21.38;12.50;;;5.90;94.80;;;;;;5083001;28;20473;-57
2023/01/31 07:23:54;;;;;;;25.08;12.70;;;5.90;94.80;;;;;;5084454;28;20086;-57
2023/01/31 07:26:19;;;;;;;28.33;12.25;;;5.90;94.80;;;;;;5084514;28;20032;-57
2023/01/31 07:28:45;;;;;;;18.35;12.30;;;5.90;94.80;;;;;;5104499;28;20031;-57
2023/01/31 07:31:11;;;;;;;15.60;11.00;;;5.90;94.70;;;;;;5106296;28;20040;-57
2023/01/31 07:33:38;;;;;;;22.08;12.73;;;5.90;94.60;;;;;;5107092;28;20044;-57
2023/01/31 07:36:04;;;;;;;20.77;11.48;;;5.90;94.70;;;;;;5108322;28;20383;-57
2023/01/31 07:38:30;;;;;;;20.73;11.15;;;5.90;94.70;;;;;;5107875;28;20039;-57
2023/01/31 07:41:02;;;;;;;20.55;11.57;;;5.90;94.60;;;;;;5107963;28;20055;-57
2023/01/31 07:43:28;;;;;;;14.73;10.77;;;5.90;94.60;;;;;;5100722;28;20023;-57
2023/01/31 07:45:54;;;;;;;19.55;10.35;;;5.90;94.70;;;;;;5087146;28;20020;-57
2023/01/31 07:48:22;;;;;;;20.67;10.77;;;5.90;94.50;;;;;;5068762;28;20047;-57
2023/01/31 07:50:49;;;;;;;15.32;10.27;;;5.90;94.50;;;;;;5085953;28;20078;-58
2023/01/31 07:53:15;;;;;;;17.67;10.90;;;5.90;94.50;;;;;;5087385;28;20056;-58
2023/01/31 07:55:41;;;;;;;23.90;11.88;;;5.90;94.40;;;;;;5087150;28;20028;-57
2023/01/31 07:58:06;;;;;;;22.15;10.55;;;5.90;94.40;;;;;;5085368;28;20043;-57
2023/01/31 08:03:35;;;;;;;19.02;10.75;;;5.80;94.50;;;;;;5105829;28;20032;-57
2023/01/31 08:06:07;;;;;;;23.38;10.52;;;5.80;94.40;;;;;;5104429;28;20044;-57
2023/01/31 08:08:34;;;;;;;21.73;10.98;;;5.80;94.40;;;;;;5105648;28;20042;-57
2023/01/31 08:11:00;;;;;;;34.13;11.35;;;5.80;94.40;;;;;;5104918;28;20043;-57
2023/01/31 08:13:25;;;;;;;35.03;11.00;;;5.80;94.50;;;;;;5100847;28;20448;-58
2023/01/31 08:15:52;;;;;;;48.40;11.63;;;5.90;94.70;;;;;;5090833;28;20039;-57
2023/01/31 08:18:17;;;;;;;40.10;11.98;;;5.90;94.80;;;;;;5102051;28;20487;-57
2023/01/31 08:20:43;;;;;;;52.45;12.32;;;5.90;94.80;;;;;;5086136;28;20074;-59
2023/01/31 08:23:08;;;;;;;502.85;58.47;;;5.90;94.80;;;;;;5090227;28;20048;-58
2023/01/31 08:25:35;;;;;;;120.78;20.23;;;5.90;94.90;;;;;;5087458;28;20048;-57
2023/01/31 08:28:00;;;;;;;89.25;14.90;;;5.90;94.80;;;;;;5086904;28;20024;-58
2023/01/31 08:30:26;;;;;;;60.30;12.68;;;5.90;94.80;;;;;;5100252;28;20016;-57
2023/01/31 08:32:52;;;;;;;42.17;11.52;;;5.90;94.80;;;;;;5083859;28;20024;-57
2023/01/31 08:35:18;;;;;;;36.80;11.07;;;5.90;94.60;;;;;;5101552;28;20051;-57
2023/01/31 08:37:43;;;;;;;36.38;11.02;;;5.80;94.50;;;;;;5106362;28;20085;-57
2023/01/31 08:40:09;;;;;;;61.00;12.82;;;5.80;94.40;;;;;;5101575;28;20053;-57
2023/01/31 08:42:35;;;;;;;50.38;12.30;;;5.80;94.40;;;;;;5100024;28;20040;-57
2023/01/31 08:45:00;;;;;;;37.50;10.82;;;5.80;94.30;;;;;;5093968;28;20024;-57
2023/01/31 08:47:26;;;;;;;39.30;10.35;;;5.80;94.30;;;;;;5101157;28;20147;-57
2023/01/31 08:49:51;;;;;;;42.00;10.77;;;5.80;94.30;;;;;;5101528;28;20115;-57
2023/01/31 08:52:17;;;;;;;26.85;10.35;;;5.80;94.20;;;;;;5095909;28;20040;-57
2023/01/31 08:54:43;;;;;;;50.28;12.45;;;5.80;94.10;;;;;;5091590;28;20115;-57
2023/01/31 08:57:08;;;;;;;39.03;12.02;;;5.80;94.10;;;;;;5083230;28;20052;-57
2023/01/31 08:59:35;;;;;;;46.38;11.30;;;5.80;94.20;;;;;;5097124;28;20032;-57
2023/01/31 09:02:01;;;;;;;48.13;12.52;;;5.80;94.20;;;;;;5098548;28;20032;-57
2023/01/31 09:04:26;;;;;;;36.38;10.70;;;5.80;94.20;;;;;;5100190;28;20434;-57
2023/01/31 09:06:53;;;;;;;43.65;12.23;;;5.80;94.20;;;;;;5104214;28;20036;-57
2023/01/31 09:09:19;;;;;;;38.20;11.05;;;5.80;94.20;;;;;;5104405;28;20054;-57
2023/01/31 09:11:44;;;;;;;32.72;10.02;;;5.80;94.30;;;;;;5102116;28;20029;-57
2023/01/31 09:14:10;;;;;;;23.80;10.35;;;5.80;94.20;;;;;;5094646;28;20150;-57
2023/01/31 09:16:37;;;;;;;41.38;10.90;;;5.80;94.20;;;;;;5105870;28;20111;-57
2023/01/31 09:19:02;;;;;;;36.28;10.35;;;5.80;94.20;;;;;;5097347;28;20044;-57
2023/01/31 09:21:28;;;;;;;27.30;10.35;;;5.80;94.20;;;;;;5094658;28;20024;-57
2023/01/31 09:23:56;;;;;;;27.90;10.55;;;5.80;94.20;;;;;;5092874;28;20521;-57
2023/01/31 09:26:22;;;;;;;38.83;9.88;;;5.80;94.20;;;;;;5083870;28;20029;-57
2023/01/31 09:28:49;;;;;;;22.02;9.35;;;5.80;94.20;;;;;;5085157;28;20092;-57
2023/01/31 09:31:16;;;;;;;26.40;10.10;;;5.80;94.20;;;;;;5083789;28;20043;-58
2023/01/31 09:33:42;;;;;;;25.17;10.35;;;5.90;94.20;;;;;;5085471;28;20028;-57
2023/01/31 09:36:20;;;;;;;34.47;11.23;;;5.80;94.20;;;;;;5101226;28;20100;-56
2023/01/31 09:38:46;;;;;;;24.70;10.55;;;5.80;94.20;;;;;;5087762;28;20665;-57
2023/01/31 09:41:52;;;;;;;32.88;10.18;;;5.80;94.20;;;;;;5083955;28;20029;-57
2023/01/31 09:44:38;;;;;;;30.83;9.73;;;5.90;94.20;;;;;;5086215;28;20024;-57
2023/01/31 09:47:27;;;;;;;;;;;5.90;94.20;;;;;;5102376;28;20084;-57
2023/01/31 09:50:05;;;;;;;21.00;8.45;;;5.90;94.20;;;;;;5088028;28;19973;-57
2023/01/31 09:52:31;;;;;;;24.77;9.07;;;5.90;94.10;;;;;;5095896;28;20035;-57
2023/01/31 09:54:57;;;;;;;20.33;9.30;;;5.80;94.10;;;;;;5098641;28;20066;-57
2023/01/31 09:57:35;;;;;;;19.30;9.32;;;5.90;94.20;;;;;;5094692;28;20027;-57
2023/01/31 10:00:20;;;;;;;21.42;9.80;;;5.80;94.50;;;;;;5110042;28;20060;-55
2023/01/31 10:03:10;;;;;;;23.92;9.52;;;5.90;94.20;;;;;;5103677;28;20040;-58
2023/01/31 10:05:35;;;;;;;21.55;9.55;;;6.00;94.30;;;;;;5104070;28;20039;-58
2023/01/31 10:08:28;;;;;;;25.20;9.15;;;5.90;94.30;;;;;;5103745;28;20024;-58
2023/01/31 10:10:59;;;;;;;22.25;9.13;;;5.90;94.30;;;;;;5101973;28;20029;-58
2023/01/31 10:13:28;;;;;;;25.40;9.68;;;5.90;94.30;;;;;;5093859;28;20046;-56
2023/01/31 10:16:29;;;;;;;22.20;10.25;;;5.90;94.30;;;;;;5107460;28;20087;-55
2023/01/31 10:19:07;;;;;;;21.55;9.38;;;6.00;94.40;;;;;;5115991;28;20113;-56
2023/01/31 10:21:41;;;;;;;25.02;9.73;;;5.90;94.40;;;;;;5086029;28;20039;-56
2023/01/31 10:24:20;;;;;;;48.83;10.93;;;6.00;94.40;;;;;;5102913;28;20028;-55
2023/01/31 10:26:46;;;;;;;50.17;12.40;;;6.00;94.50;;;;;;5102985;28;20134;-56
2023/01/31 10:29:27;;;;;;;40.08;11.68;;;6.10;94.50;;;;;;5101113;28;20028;-56
2023/01/31 10:31:59;;;;;;;40.38;11.20;;;6.10;94.60;;;;;;5083588;28;20075;-55
2023/01/31 10:34:57;;;;;;;34.83;10.93;;;6.10;94.60;;;;;;5082695;28;20044;-56
2023/01/31 10:37:31;;;;;;;44.95;11.85;;;6.10;94.90;;;;;;5070912;28;20040;-55
2023/01/31 10:40:00;;;;;;;43.90;12.90;;;6.20;94.60;;;;;;5082988;28;20028;-55
2023/01/31 10:42:34;;;;;;;75.00;13.18;;;6.20;94.70;;;;;;5097110;28;20032;-55
2023/01/31 10:45:01;;;;;;;45.08;11.43;;;6.20;94.60;;;;;;5101848;28;20480;-55
2023/01/31 10:47:37;;;;;;;49.30;13.60;;;6.30;94.50;;;;;;5091053;28;20048;-56
2023/01/31 10:50:14;;;;;;;58.00;13.10;;;6.20;94.50;;;;;;5082291;28;20111;-55
2023/01/31 10:52:44;;;;;;;60.72;14.27;;;6.30;95.00;;;;;;5094137;28;20048;-56
2023/01/31 10:55:28;;;;;;;55.90;13.20;;;6.30;94.60;;;;;;5101426;28;20028;-56
2023/01/31 10:57:54;;;;;;;47.95;12.48;;;6.30;94.60;;;;;;5088516;28;20028;-56
2023/01/31 11:00:22;;;;;;;41.13;11.70;;;6.30;94.50;;;;;;5098053;28;20088;-56
2023/01/31 11:02:48;;;;;;;49.10;12.63;;;6.40;94.50;;;;;;5082135;28;20063;-56
2023/01/31 11:05:19;;;;;;;73.28;15.45;;;6.40;94.40;;;;;;5105125;28;20020;-56
2023/01/31 11:07:44;;;;;;;57.53;15.60;;;6.40;94.40;;;;;;5089695;28;20115;-56
2023/01/31 11:10:20;;;;;;;155.27;21.70;;;6.40;94.40;;;;;;5106589;28;20062;-55
2023/01/31 11:13:00;;;;;;;85.07;15.57;;;6.50;94.40;;;;;;5100555;28;20035;-55
2023/01/31 11:15:28;;;;;;;63.45;14.85;;;6.50;94.50;;;;;;5100344;28;20025;-55
2023/01/31 11:17:55;;;;;;;80.63;13.93;;;6.50;94.60;;;;;;5108339;28;20054;-56
2023/01/31 11:20:23;;;;;;;76.78;15.02;;;6.50;94.60;;;;;;5100950;28;20032;-55
2023/01/31 11:22:49;;;;;;;137.43;17.77;;;6.50;94.50;;;;;;5086054;28;20029;-55
2023/01/31 11:25:18;;;;;;;81.45;16.67;;;6.50;94.40;;;;;;5085061;28;20025;-56
2023/01/31 11:27:44;;;;;;;260.30;31.95;;;6.50;94.30;;;;;;5068141;28;20045;-56
2023/01/31 11:30:29;;;;;;;94.00;16.48;;;6.60;94.30;;;;;;5084491;28;20039;-55
2023/01/31 11:32:54;;;;;;;132.77;18.65;;;6.60;94.30;;;;;;5104134;28;20096;-56
2023/01/31 11:35:22;;;;;;;74.93;15.00;;;6.60;94.20;;;;;;5085205;28;20032;-56
2023/01/31 11:37:53;;;;;;;99.35;16.05;;;6.60;94.10;;;;;;5095760;28;20040;-55
2023/01/31 11:40:26;;;;;;;84.60;15.13;;;6.70;94.00;;;;;;5095676;28;20328;-55
2023/01/31 11:42:56;;;;;;;107.90;18.92;;;6.70;93.90;;;;;;5101539;28;20028;-56
2023/01/31 11:45:26;;;;;;;135.05;22.15;;;6.70;94.00;;;;;;5100451;28;20165;-55
2023/01/31 11:47:52;;;;;;;110.07;18.77;;;6.80;94.00;;;;;;5086013;28;20036;-55
2023/01/31 11:50:24;;;;;;;106.88;18.60;;;6.80;94.00;;;;;;5084807;28;20096;-56
2023/01/31 11:52:57;;;;;;;82.20;16.42;;;6.80;94.30;;;;;;5101507;28;20032;-56
2023/01/31 11:55:23;;;;;;;130.30;22.60;;;6.80;94.00;;;;;;5091298;28;20069;-56
2023/01/31 11:57:53;;;;;;;117.32;19.05;;;6.90;93.90;;;;;;5085106;28;20497;-56
2023/01/31 12:00:22;;;;;;;197.70;30.17;;;7.00;93.80;;;;;;5085165;28;20028;-56
2023/01/31 12:02:52;;;;;;;131.35;21.20;;;7.00;93.70;;;;;;5085207;28;20021;-56
2023/01/31 12:05:18;;;;;;;149.45;21.77;;;7.00;93.60;;;;;;5107146;28;20055;-57
2023/01/31 12:07:52;;;;;;;122.65;21.92;;;7.10;93.70;;;;;;5091762;28;20136;-58
2023/01/31 12:10:41;;;;;;;167.88;22.90;;;7.10;93.70;;;;;;5097301;28;20101;-58
2023/01/31 12:13:18;;;;;;;96.45;18.92;;;7.10;94.10;;;;;;5108829;28;20040;-58
2023/01/31 12:15:59;;;;;;;125.22;20.17;;;7.10;93.90;;;;;;5098290;28;20061;-58
2023/01/31 12:19:06;;;;;;;131.40;20.75;;;7.20;93.80;;;;;;5105263;28;20081;-58
2023/01/31 12:21:59;;;;;;;189.55;24.23;;;7.20;93.80;;;;;;5077143;28;20036;-58
2023/01/31 12:24:36;;;;;;;174.05;24.17;;;7.20;93.60;;;;;;5088501;28;21518;-58
2023/01/31 12:27:27;;;;;;;121.65;20.10;;;7.20;93.60;;;;;;5101414;28;20035;-58
2023/01/31 12:30:11;;;;;;;106.43;17.40;;;7.20;93.60;;;;;;5100704;28;20039;-58
2023/01/31 12:32:40;;;;;;;98.63;17.88;;;7.30;93.60;;;;;;5103519;28;20102;-58
2023/01/31 12:35:22;;;;;;;92.43;18.10;;;7.30;93.60;;;;;;5104866;28;20024;-58
2023/01/31 12:38:06;;;;;;;109.50;19.48;;;7.30;93.60;;;;;;5102311;28;20031;-58
2023/01/31 12:40:53;;;;;;;105.72;18.10;;;7.30;93.50;;;;;;5093231;28;20038;-58
2023/01/31 12:43:34;;;;;;;94.10;17.80;;;7.30;93.40;;;;;;5104244;28;20110;-58
2023/01/31 12:46:46;;;;;;;89.80;15.55;;;7.40;93.50;;;;;;5102139;28;20088;-58
2023/01/31 12:49:43;;;;;;;100.43;15.93;;;7.40;93.50;;;;;;5062089;28;20103;-58
2023/01/31 12:52:51;;;;;;;117.15;16.70;;;7.40;93.50;;;;;;5103027;28;20032;-58
2023/01/31 12:55:38;;;;;;;89.63;15.90;;;7.40;93.40;;;;;;5043301;28;20029;-58
2023/01/31 12:58:20;;;;;;;96.30;16.40;;;7.40;93.30;;;;;;5087486;28;20042;-58
2023/01/31 13:00:46;;;;;;;87.22;16.42;;;7.40;93.30;;;;;;5086381;28;20037;-58